Time;durP1;ratioP1;P1;durP2;ratioP2;P2;SDS_P1;SDS_P2;PMS_P1;PMS_P2;Temp;Humidity;BMP_temperature;BMP_pressure;BME280_temperature;BME280_humidity;BME280_pressure;Samples;Min_cycle;Max_cycle;Signal;HPM_P1;HPM_P2
2022/11/29 00:00:32;;;;;;;;;;;6.90;93.80;;;;;;5093769;28;20297;-56
2022/11/29 00:02:58;;;;;;;;;;;6.90;93.90;;;;;;5158063;22;19924;-55
2022/11/29 00:05:24;;;;;;;;;;;6.90;93.90;;;;;;5134885;27;19915;-54
2022/11/29 00:07:49;;;;;;;;;;;6.90;94.00;;;;;;5134993;27;19989;-55
2022/11/29 00:10:15;;;;;;;;;;;6.90;94.00;;;;;;5134666;27;19911;-58
2022/11/29 00:12:40;;;;;;;;;;;6.90;94.00;;;;;;5131489;27;19912;-55
2022/11/29 00:15:06;;;;;;;;;;;6.90;93.90;;;;;;5105711;27;20387;-55
2022/11/29 00:17:32;;;;;;;;;;;6.80;93.90;;;;;;5133427;27;20275;-55
2022/11/29 00:19:57;;;;;;;;;;;6.80;93.90;;;;;;5103482;28;19919;-56
2022/11/29 00:22:24;;;;;;;;;;;6.70;94.30;;;;;;5114274;28;20529;-55
2022/11/29 00:24:50;;;;;;;;;;;6.70;94.40;;;;;;5120953;27;19912;-56
2022/11/29 00:27:15;;;;;;;;;;;6.70;94.40;;;;;;5126046;27;19915;-56
2022/11/29 00:29:41;;;;;;;;;;;6.80;94.40;;;;;;5115374;27;19919;-56
2022/11/29 00:32:06;;;;;;;;;;;6.80;94.20;;;;;;5131380;27;19918;-54
2022/11/29 00:34:32;;;;;;;;;;;6.80;94.30;;;;;;5131295;27;20256;-55
2022/11/29 00:36:58;;;;;;;;;;;6.80;94.20;;;;;;5119502;27;19912;-55
2022/11/29 00:39:23;;;;;;;;;;;6.90;94.10;;;;;;5132691;27;20380;-56
2022/11/29 00:41:49;;;;;;;;;;;6.80;94.10;;;;;;5133566;27;19922;-55
2022/11/29 00:44:14;;;;;;;;;;;6.90;94.10;;;;;;5118735;27;19912;-56
2022/11/29 00:46:40;;;;;;;;;;;6.80;94.00;;;;;;5120239;27;19923;-55
2022/11/29 00:49:05;;;;;;;;;;;6.80;94.00;;;;;;5113990;28;20010;-57
2022/11/29 00:51:31;;;;;;;;;;;6.90;94.00;;;;;;5129905;27;19911;-56
2022/11/29 00:53:57;;;;;;;;;;;7.00;94.40;;;;;;5133466;27;19911;-55
2022/11/29 00:56:22;;;;;;;;;;;6.70;94.50;;;;;;5116314;27;20333;-55
2022/11/29 00:58:48;;;;;;;;;;;6.60;94.80;;;;;;5125605;27;20375;-59
2022/11/29 01:01:14;;;;;;;;;;;6.60;94.80;;;;;;5122367;27;20384;-56
2022/11/29 01:03:40;;;;;;;;;;;6.60;94.70;;;;;;5113452;28;20291;-58
2022/11/29 01:06:06;;;;;;;;;;;6.70;94.70;;;;;;5113880;27;19922;-54
2022/11/29 01:08:32;;;;;;;;;;;6.70;94.50;;;;;;5113344;28;20365;-55
2022/11/29 01:11:07;;;;;;;;;;;6.80;94.50;;;;;;5113306;27;19912;-56
2022/11/29 01:13:33;;;;;;;;;;;6.80;94.30;;;;;;5104716;27;19912;-57
2022/11/29 01:15:58;;;;;;;;;;;6.80;94.30;;;;;;5124216;27;20447;-56
2022/11/29 01:18:24;;;;;;;;;;;6.90;94.20;;;;;;5094883;28;19955;-57
2022/11/29 01:21:00;;;;;;;;;;;6.90;94.20;;;;;;5096161;28;19912;-55
2022/11/29 01:23:26;;;;;;;;;;;6.90;94.20;;;;;;5113165;28;19918;-55
2022/11/29 01:26:11;;;;;;;;;;;6.90;94.10;;;;;;5121336;27;19916;-54
2022/11/29 01:28:37;;;;;;;;;;;6.90;94.10;;;;;;5123032;27;19958;-55
2022/11/29 01:31:06;;;;;;;;;;;6.90;94.10;;;;;;5114154;27;19915;-57
2022/11/29 01:33:32;;;;;;;;;;;6.90;94.10;;;;;;5113017;28;19908;-55
2022/11/29 01:35:57;;;;;;;;;;;6.90;94.00;;;;;;5126299;27;20374;-55
2022/11/29 01:38:23;;;;;;;;;;;6.90;94.00;;;;;;5133127;27;20287;-55
2022/11/29 01:40:59;;;;;;;;;;;6.90;94.00;;;;;;5105540;28;20109;-55
2022/11/29 01:43:25;;;;;;;;;;;6.80;94.00;;;;;;5102677;27;19918;-57
2022/11/29 01:45:51;;;;;;;;;;;6.80;94.10;;;;;;5125694;27;19919;-55
2022/11/29 01:48:17;;;;;;;;;;;6.90;94.10;;;;;;5132733;27;19912;-56
2022/11/29 01:50:43;;;;;;;;;;;6.90;94.10;;;;;;5117000;27;19912;-56
2022/11/29 01:53:11;;;;;;;;;;;6.90;94.10;;;;;;5111877;28;20368;-55
2022/11/29 01:55:38;;;;;;;;;;;6.80;94.00;;;;;;5112705;28;19912;-55
2022/11/29 01:58:05;;;;;;;;;;;6.90;93.90;;;;;;5112585;28;19916;-55
2022/11/29 02:00:31;;;;;;;;;;;6.80;94.00;;;;;;5113670;27;19918;-56
2022/11/29 02:03:07;;;;;;;;;;;6.80;94.00;;;;;;5123757;27;20336;-55
2022/11/29 02:05:32;;;;;;;;;;;6.80;94.10;;;;;;5112749;28;20279;-54
2022/11/29 02:07:59;;;;;;;;;;;6.80;94.10;;;;;;5111675;28;20006;-55
2022/11/29 02:10:30;;;;;;;;;;;6.70;94.10;;;;;;5114548;28;20375;-54
2022/11/29 02:13:19;;;;;;;;;;;6.80;94.20;;;;;;5132925;28;19961;-59
2022/11/29 02:15:48;;;;;;;;;;;6.80;94.30;;;;;;5084942;28;19922;-54
2022/11/29 02:18:18;;;;;;;;;;;6.70;94.60;;;;;;5131670;28;19911;-55
2022/11/29 02:20:50;;;;;;;;;;;6.60;94.90;;;;;;5112554;28;19912;-55
2022/11/29 02:23:15;;;;;;;;;;;6.50;95.00;;;;;;5094078;28;19915;-58
2022/11/29 02:25:56;;;;;;;;;;;6.60;95.00;;;;;;5112278;28;20004;-57
2022/11/29 02:28:22;;;;;;;;;;;6.60;95.00;;;;;;5112307;28;19923;-55
2022/11/29 02:31:06;;;;;;;;;;;6.50;95.10;;;;;;5112402;28;19908;-57
2022/11/29 02:33:41;;;;;;;;;;;6.50;95.00;;;;;;5112311;28;19915;-56
2022/11/29 02:36:06;;;;;;;;;;;6.60;95.10;;;;;;5112634;28;20284;-56
2022/11/29 02:38:32;;;;;;;;;;;6.60;95.00;;;;;;5112128;28;19911;-57
2022/11/29 02:41:09;;;;;;;;;;;6.60;95.00;;;;;;5112176;28;19908;-56
2022/11/29 02:43:35;;;;;;;;;;;6.60;94.90;;;;;;5112383;28;19915;-56
2022/11/29 02:46:06;;;;;;;;;;;6.70;94.80;;;;;;5093783;28;19911;-56
2022/11/29 02:48:32;;;;;;;;;;;6.70;94.60;;;;;;5112035;28;19908;-58
2022/11/29 02:51:08;;;;;;;;;;;6.70;94.60;;;;;;5112131;28;19908;-58
2022/11/29 02:53:52;;;;;;;;;;;6.80;94.50;;;;;;5093888;28;19953;-54
2022/11/29 02:56:24;;;;;;;;;;;6.80;94.40;;;;;;5126288;28;19915;-56
2022/11/29 02:58:57;;;;;;;;;;;6.80;94.40;;;;;;5132487;28;19927;-57
2022/11/29 03:01:30;;;;;;;;;;;6.80;94.40;;;;;;5132621;28;20002;-55
2022/11/29 03:03:56;;;;;;;;;;;6.80;94.40;;;;;;5125841;27;20406;-59
2022/11/29 03:06:28;;;;;;;;;;;6.80;94.30;;;;;;5097650;28;19912;-56
2022/11/29 03:09:23;;;;;;;;;;;6.80;94.20;;;;;;5126055;27;20256;-56
2022/11/29 03:12:01;;;;;;;;;;;6.80;94.50;;;;;;5113910;27;19960;-57
2022/11/29 03:14:29;;;;;;;;;;;6.70;94.50;;;;;;5136405;27;20264;-57
2022/11/29 03:17:13;;;;;;;;;;;6.70;94.50;;;;;;5136309;27;19912;-55
2022/11/29 03:19:49;;;;;;;;;;;6.60;94.70;;;;;;5136039;27;19908;-57
2022/11/29 03:22:26;;;;;;;;;;;6.50;95.10;;;;;;5115642;27;19912;-55
2022/11/29 03:25:04;;;;;;;;;;;6.40;95.50;;;;;;5115554;28;19908;-54
2022/11/29 03:27:35;;;;;;;;;;;6.30;95.60;;;;;;5115474;28;20010;-56
2022/11/29 03:30:03;;;;;;;;;;;6.30;95.60;;;;;;5114227;28;19907;-57
2022/11/29 03:32:33;;;;;;;;;;;6.30;95.70;;;;;;5114392;28;20037;-56
2022/11/29 03:35:14;;;;;;;;;;;6.30;95.80;;;;;;5115247;28;19907;-56
2022/11/29 03:37:47;;;;;;;;;;;6.30;95.60;;;;;;5097000;28;19953;-55
2022/11/29 03:40:26;;;;;;;;;;;6.40;95.40;;;;;;5115048;28;20268;-55
2022/11/29 03:42:59;;;;;;;;;;;6.40;95.30;;;;;;5096911;28;19998;-55
2022/11/29 03:45:25;;;;;;;;;;;6.50;95.20;;;;;;5115111;28;19912;-56
2022/11/29 03:47:56;;;;;;;;;;;6.50;95.20;;;;;;5115131;28;20379;-55
2022/11/29 03:50:25;;;;;;;;;;;6.40;95.30;;;;;;5116922;27;19908;-55
2022/11/29 03:52:56;;;;;;;;;;;6.30;95.70;;;;;;5126600;27;20260;-55
2022/11/29 03:55:42;;;;;;;;;;;6.20;95.80;;;;;;5123276;27;20004;-55
2022/11/29 03:58:11;;;;;;;;;;;6.10;96.00;;;;;;5114795;28;19918;-55
2022/11/29 04:00:48;;;;;;;;;;;6.10;96.00;;;;;;5118793;27;20294;-56
2022/11/29 04:03:14;;;;;;;;;;;6.10;96.10;;;;;;5119230;27;19922;-55
2022/11/29 04:05:58;;;;;;;;;;;6.20;95.90;;;;;;5127574;27;19911;-56
2022/11/29 04:08:27;;;;;;;;;;;6.20;96.00;;;;;;5135107;27;19908;-55
2022/11/29 04:11:07;;;;;;;;;;;6.20;96.00;;;;;;5133932;27;20017;-54
2022/11/29 04:13:34;;;;;;;;;;;6.30;96.00;;;;;;5130505;27;19919;-54
2022/11/29 04:16:02;;;;;;;;;;;6.30;95.80;;;;;;5118602;27;19971;-54
2022/11/29 04:18:35;;;;;;;;;;;6.40;95.70;;;;;;5142295;27;19998;-56
2022/11/29 04:21:13;;;;;;;;;;;6.40;95.50;;;;;;5100162;28;20295;-55
2022/11/29 04:23:38;;;;;;;;;;;6.50;95.40;;;;;;5114367;27;19912;-55
2022/11/29 04:26:07;;;;;;;;;;;6.60;95.30;;;;;;5114298;28;19968;-54
2022/11/29 04:28:33;;;;;;;;;;;6.60;95.10;;;;;;5131562;27;19918;-55
2022/11/29 04:31:01;;;;;;;;;;;6.60;95.00;;;;;;5131532;27;19912;-54
2022/11/29 04:33:27;;;;;;;;;;;6.60;94.90;;;;;;5134621;27;19960;-55
2022/11/29 04:36:04;;;;;;;;;;;6.60;95.00;;;;;;5125473;27;20014;-56
2022/11/29 04:38:53;;;;;;;;;;;6.50;95.10;;;;;;5121952;27;19941;-54
2022/11/29 04:41:34;;;;;;;;;;;6.50;95.40;;;;;;5065147;28;19912;-55
2022/11/29 04:44:10;;;;;;;;;;;6.50;95.30;;;;;;5114272;28;20283;-54
2022/11/29 04:46:48;;;;;;;;;;;6.60;95.20;;;;;;5100697;28;19916;-55
2022/11/29 04:49:21;;;;;;;;;;;6.60;95.00;;;;;;5122813;27;19912;-54
2022/11/29 04:52:05;;;;;;;;;;;6.70;95.20;;;;;;5130578;27;19911;-48
2022/11/29 04:54:31;;;;;;;;;;;6.70;94.90;;;;;;5123205;27;19911;-59
2022/11/29 04:57:15;;;;;;;;;;;6.70;94.80;;;;;;5133689;27;20290;-58
2022/11/29 04:59:47;;;;;;;;;;;6.70;94.80;;;;;;5134227;27;19911;-56
2022/11/29 05:02:30;;;;;;;;;;;6.70;94.70;;;;;;5129245;27;19911;-57
2022/11/29 05:05:15;;;;;;;;;;;6.60;94.70;;;;;;5134199;27;19911;-57
2022/11/29 05:07:46;;;;;;;;;;;6.60;94.70;;;;;;5133921;27;19916;-55
2022/11/29 05:10:12;;;;;;;;;;;6.50;94.80;;;;;;5133887;27;20374;-55
2022/11/29 05:12:41;;;;;;;;;;;6.40;95.10;;;;;;5133790;27;19907;-56
2022/11/29 05:15:09;;;;;;;;;;;6.50;95.20;;;;;;5133937;27;19939;-57
2022/11/29 05:17:53;;;;;;;;;;;6.50;95.10;;;;;;5132553;27;19919;-55
2022/11/29 05:20:19;;;;;;;;;;;6.50;95.00;;;;;;5133645;27;19907;-56
2022/11/29 05:22:51;;;;;;;;;;;6.50;94.90;;;;;;5133613;27;19915;-57
2022/11/29 05:25:26;;;;;;;;;;;6.50;94.90;;;;;;5133722;27;19907;-58
2022/11/29 05:27:55;;;;;;;;;;;6.50;94.90;;;;;;5133432;27;20363;-56
2022/11/29 05:30:21;;;;;;;;;;;6.50;95.00;;;;;;5133492;27;19990;-58
2022/11/29 05:32:53;;;;;;;;;;;6.40;95.20;;;;;;5133484;27;19908;-58
2022/11/29 05:35:31;;;;;;;;;;;6.30;95.40;;;;;;5133602;27;19908;-57
2022/11/29 05:38:15;;;;;;;;;;;6.20;95.70;;;;;;5133806;27;19907;-55
2022/11/29 05:40:43;;;;;;;;;;;6.20;95.70;;;;;;5133654;27;20478;-55
2022/11/29 05:43:15;;;;;;;;;;;6.20;96.00;;;;;;5133435;27;19955;-55
2022/11/29 05:45:51;;;;;;;;;;;6.10;95.80;;;;;;5133370;27;20007;-59
2022/11/29 05:48:35;;;;;;;;;;;6.20;96.00;;;;;;5133421;27;19999;-58
2022/11/29 05:51:14;;;;;;;;;;;6.20;95.60;;;;;;5114895;27;19912;-56
2022/11/29 05:53:52;;;;;;;;;;;6.20;95.70;;;;;;5133431;27;20344;-57
2022/11/29 05:56:24;;;;;;;;;;;6.20;95.50;;;;;;5133200;27;19914;-55
2022/11/29 05:58:57;;;;;;;;;;;6.30;95.60;;;;;;5114744;27;19908;-57
2022/11/29 06:01:35;;;;;;;;;;;6.30;95.60;;;;;;5133369;27;19953;-55
2022/11/29 06:04:03;;;;;;;;;;;6.40;95.50;;;;;;5133783;27;19915;-55
2022/11/29 06:06:40;;;;;;;;;;;6.50;95.30;;;;;;5133015;27;19911;-56
2022/11/29 06:09:39;;;;;;;;;;;6.50;95.20;;;;;;5133083;27;19914;-56
2022/11/29 06:12:23;;;;;;;;;;;6.50;95.10;;;;;;5077144;28;19919;-55
2022/11/29 06:14:52;;;;;;;;;;;6.50;95.20;;;;;;5133030;28;20014;-56
2022/11/29 06:17:17;;;;;;;;;;;6.50;95.20;;;;;;5133089;28;19908;-58
2022/11/29 06:20:03;;;;;;;;;;;6.50;95.10;;;;;;5133185;28;20387;-59
2022/11/29 06:22:47;;;;;;;;;;;6.50;95.00;;;;;;5132982;28;19907;-59
2022/11/29 06:25:22;;;;;;;;;;;6.60;95.00;;;;;;5133135;28;19915;-55
2022/11/29 06:27:47;;;;;;;;;;;6.60;94.90;;;;;;5132859;28;19956;-58
2022/11/29 06:30:14;;;;;;;;;;;6.60;94.90;;;;;;5132882;28;20404;-57
2022/11/29 06:33:00;;;;;;;;;;;6.60;95.00;;;;;;5132942;28;20399;-55
2022/11/29 06:35:36;;;;;;;;;;;6.70;95.00;;;;;;5132859;28;19912;-58
2022/11/29 06:38:08;;;;;;;;;;;6.60;94.90;;;;;;5132963;27;20004;-55
2022/11/29 06:40:34;;;;;;;;;;;6.70;95.00;;;;;;5137095;27;19908;-59
2022/11/29 06:42:59;;;;;;;;;;;6.70;94.90;;;;;;5137248;27;19953;-55
2022/11/29 06:45:25;;;;;;;;;;;6.70;94.90;;;;;;5137048;27;19946;-54
2022/11/29 06:47:59;;;;;;;;;;;6.70;94.90;;;;;;5136886;27;20349;-57
2022/11/29 06:50:32;;;;;;;;;;;6.70;95.00;;;;;;5136560;27;19912;-55
2022/11/29 06:53:30;;;;;;;;;;;6.70;94.90;;;;;;5136797;27;19946;-55
2022/11/29 06:56:06;;;;;;;;;;;6.70;94.80;;;;;;5080001;27;20057;-57
2022/11/29 06:58:35;;;;;;;;;;;6.70;94.70;;;;;;5136502;27;20400;-56
2022/11/29 07:01:18;;;;;;;;;;;6.70;94.70;;;;;;5136626;27;19961;-57
2022/11/29 07:03:50;;;;;;;;;;;6.70;94.70;;;;;;5136402;27;19923;-58
2022/11/29 07:06:26;;;;;;;;;;;6.70;94.60;;;;;;5136401;27;19919;-59
2022/11/29 07:08:55;;;;;;;;;;;6.80;94.60;;;;;;5136374;27;19907;-58
2022/11/29 07:11:21;;;;;;;;;;;6.80;94.60;;;;;;5136295;27;19915;-57
2022/11/29 07:13:47;;;;;;;;;;;6.80;94.60;;;;;;5136406;27;19908;-57
2022/11/29 07:16:15;;;;;;;;;;;6.80;94.50;;;;;;5136351;27;19939;-57
2022/11/29 07:18:47;;;;;;;;;;;6.80;94.70;;;;;;5136253;27;19912;-58
2022/11/29 07:21:23;;;;;;;;;;;6.80;94.70;;;;;;5136230;27;20352;-55
2022/11/29 07:23:49;;;;;;;;;;;6.90;94.70;;;;;;5136095;27;19918;-56
2022/11/29 07:26:34;;;;;;;;;;;6.90;94.50;;;;;;5136032;27;19919;-55
2022/11/29 07:29:18;;;;;;;;;;;6.80;94.70;;;;;;5136076;27;19985;-59
2022/11/29 07:31:52;;;;;;;;;;;6.80;95.10;;;;;;5136138;27;19930;-55
2022/11/29 07:34:18;;;;;;;;;;;6.80;95.10;;;;;;5135917;27;19914;-57
2022/11/29 07:37:02;;;;;;;;;;;6.80;95.70;;;;;;5135937;27;19907;-55
2022/11/29 07:39:30;;;;;;;;;;;6.80;95.60;;;;;;5135833;27;19908;-56
2022/11/29 07:42:05;;;;;;;;;;;6.70;95.40;;;;;;5135909;27;19908;-55
2022/11/29 07:44:39;;;;;;;;;;;6.80;95.30;;;;;;5135952;27;19992;-55
2022/11/29 07:47:04;;;;;;;;;;;6.90;95.10;;;;;;5117295;27;20381;-57
2022/11/29 07:49:30;;;;;;;;;;;6.90;95.00;;;;;;5117175;27;19908;-55
2022/11/29 07:51:55;;;;;;;;;;;6.90;94.80;;;;;;5134352;27;19992;-55
2022/11/29 07:54:22;;;;;;;;;;;6.90;95.10;;;;;;5135650;27;20397;-56
2022/11/29 07:56:47;;;;;;;;;;;7.00;95.10;;;;;;5135506;27;19930;-57
2022/11/29 07:59:13;;;;;;;;;;;7.00;94.90;;;;;;5135790;27;20363;-56
2022/11/29 08:01:39;;;;;;;;;;;7.10;94.70;;;;;;5135377;27;20291;-55
2022/11/29 08:04:05;;;;;;;;;;;7.20;94.60;;;;;;5135580;27;19919;-55
2022/11/29 08:06:30;;;;;;;;;;;7.20;94.70;;;;;;5135345;27;20414;-55
2022/11/29 08:08:56;;;;;;;;;;;7.20;94.70;;;;;;5135160;27;20345;-57
2022/11/29 08:11:22;;;;;;;;;;;7.20;94.90;;;;;;5135285;27;19914;-55
2022/11/29 08:13:48;;;;;;;;;;;8.10;97.20;;;;;;5135116;27;19907;-59
2022/11/29 08:16:17;;;;;;;;;;;7.20;94.50;;;;;;5135170;27;20435;-59
2022/11/29 08:18:43;;;;;;;;;;;7.30;94.50;;;;;;5135120;27;20002;-60
2022/11/29 08:21:08;;;;;;;;;;;7.30;94.30;;;;;;5135152;27;20441;-57
2022/11/29 08:23:34;;;;;;;;;;;7.40;94.20;;;;;;5134918;27;19907;-58
2022/11/29 08:26:00;;;;;;;;;;;7.40;94.10;;;;;;5134920;27;20390;-56
2022/11/29 08:28:26;;;;;;;;;;;7.50;94.20;;;;;;5134782;27;20390;-58
2022/11/29 08:30:58;;;;;;;;;;;7.50;94.20;;;;;;5135031;27;19967;-57
2022/11/29 08:33:24;;;;;;;;;;;7.50;94.20;;;;;;5134828;27;19907;-57
2022/11/29 08:35:49;;;;;;;;;;;7.50;94.20;;;;;;5116357;27;19915;-57
2022/11/29 08:38:15;;;;;;;;;;;7.60;94.30;;;;;;5134540;27;19917;-57
2022/11/29 08:40:40;;;;;;;;;;;7.60;94.30;;;;;;5134736;27;20000;-57
2022/11/29 08:43:06;;;;;;;;;;;7.60;94.30;;;;;;5134520;27;19907;-59
2022/11/29 08:45:32;;;;;;;;;;;7.60;94.20;;;;;;5116125;27;19964;-57
2022/11/29 08:47:57;;;;;;;;;;;7.60;94.20;;;;;;5116100;27;19911;-57
2022/11/29 08:50:24;;;;;;;;;;;7.70;94.30;;;;;;5134347;27;20303;-55
2022/11/29 08:55:39;;;;;;;;;;;7.70;94.30;;;;;;5134759;27;20278;-57
2022/11/29 08:58:06;;;;;;;;;;;7.70;94.40;;;;;;5134303;27;19908;-58
2022/11/29 09:00:32;;;;;;;;;;;7.80;94.30;;;;;;5134407;27;19998;-57
2022/11/29 09:03:58;;;;;;;;;;;7.80;94.40;;;;;;5133579;27;20400;-57
2022/11/29 09:05:43;;;;;;;;;;;7.90;94.20;;;;;;5134054;27;19907;-57
2022/11/29 09:08:09;;;;;;;;;;;7.90;94.00;;;;;;5133880;27;20025;-58
2022/11/29 09:10:34;;;;;;;;;;;8.00;94.10;;;;;;5134161;27;19908;-58
2022/11/29 09:13:00;;;;;;;;;;;8.00;93.90;;;;;;5134105;27;20287;-57
2022/11/29 09:15:25;;;;;;;;;;;8.10;93.90;;;;;;5134281;27;20287;-61
2022/11/29 09:17:51;;;;;;;;;;;8.10;93.80;;;;;;5133918;27;20321;-56
2022/11/29 09:20:16;;;;;;;;;;;8.20;93.70;;;;;;5133804;27;19908;-57
2022/11/29 09:22:42;;;;;;;;;;;8.20;93.20;;;;;;5133824;27;19908;-57
2022/11/29 09:25:07;;;;;;;;;;;8.20;93.50;;;;;;5133868;27;19930;-57
2022/11/29 09:27:33;;;;;;;;;;;8.20;93.20;;;;;;5133844;27;19965;-57
2022/11/29 09:29:58;;;;;;;;;;;8.20;93.30;;;;;;5133725;27;20287;-58
2022/11/29 09:32:24;;;;;;;;;;;8.30;93.40;;;;;;5133955;27;19918;-55
2022/11/29 09:34:50;;;;;;;;;;;8.40;93.60;;;;;;5133627;27;19914;-58
2022/11/29 09:37:15;;;;;;;;;;;8.40;93.40;;;;;;5133660;27;20386;-59
2022/11/29 09:39:41;;;;;;;;;;;8.40;93.30;;;;;;5133713;27;19911;-55
2022/11/29 09:42:11;;;;;;;;;;;8.50;93.40;;;;;;5133613;27;19937;-57
2022/11/29 09:44:48;;;;;;;;;;;8.60;93.50;;;;;;5133598;27;19990;-57
2022/11/29 09:47:23;;;;;;;;;;;8.60;93.00;;;;;;5133336;27;19911;-57
2022/11/29 09:50:00;;;;;;;;;;;8.70;92.90;;;;;;5114777;27;19914;-57
2022/11/29 09:52:25;;;;;;;;;;;8.70;92.40;;;;;;5133555;27;19950;-55
2022/11/29 09:54:51;;;;;;;;;;;8.60;92.20;;;;;;5133392;27;19950;-58
2022/11/29 09:57:18;;;;;;;;;;;8.60;93.00;;;;;;5133312;27;20337;-58
2022/11/29 09:59:47;;;;;;;;;;;8.60;93.00;;;;;;5133191;27;19908;-59
2022/11/29 10:02:18;;;;;;;;;;;8.70;93.10;;;;;;5133061;27;19959;-58
2022/11/29 10:04:47;;;;;;;;;;;8.70;92.40;;;;;;5133275;27;19914;-58
2022/11/29 10:07:21;;;;;;;;;;;8.50;91.60;;;;;;5133202;27;19912;-57
2022/11/29 10:09:49;;;;;;;;;;;8.40;92.50;;;;;;5132995;27;19914;-59
2022/11/29 10:12:15;;;;;;;;;;;8.40;92.90;;;;;;5133115;28;20000;-57
2022/11/29 10:14:47;;;;;;;;;;;8.50;92.70;;;;;;5132270;27;19950;-59
2022/11/29 10:17:16;;;;;;;;;;;8.50;92.50;;;;;;5133176;28;19960;-55
2022/11/29 10:19:43;;;;;;;;;;;8.60;92.60;;;;;;5132936;28;20279;-57
2022/11/29 10:22:09;;;;;;;;;;;8.60;92.60;;;;;;5132900;28;20368;-56
2022/11/29 10:24:36;;;;;;;;;;;8.70;92.20;;;;;;5132948;28;19911;-57
2022/11/29 10:27:09;;;;;;;;;;;8.70;92.30;;;;;;5132941;28;19911;-57
2022/11/29 10:29:35;;;;;;;;;;;8.80;92.20;;;;;;5133008;28;19911;-58
2022/11/29 10:32:04;;;;;;;;;;;8.70;92.20;;;;;;5132914;28;20386;-58
2022/11/29 10:34:29;;;;;;;;;;;8.80;92.40;;;;;;5132897;28;19914;-59
2022/11/29 10:37:01;;;;;;;;;;;8.80;91.40;;;;;;5132875;28;19911;-59
2022/11/29 10:39:38;;;;;;;;;;;8.80;92.10;;;;;;5132774;28;19969;-57
2022/11/29 10:42:47;;;;;;;;;;;8.90;92.70;;;;;;5132849;28;19914;-54
2022/11/29 10:44:50;;;;;;;;;;;8.90;92.20;;;;;;5132649;27;20360;-58
2022/11/29 10:47:15;;;;;;;;;;;8.80;91.60;;;;;;5132694;28;20228;-57
2022/11/29 10:49:41;;;;;;;;;;;8.90;92.00;;;;;;5132544;28;19907;-57
2022/11/29 10:52:15;;;;;;;;;;;8.90;92.20;;;;;;5132797;28;19912;-59
2022/11/29 10:54:41;;;;;;;;;;;8.90;92.20;;;;;;5132815;28;19907;-58
2022/11/29 10:57:11;;;;;;;;;;;9.00;91.90;;;;;;5132758;28;19907;-57
2022/11/29 10:59:37;;;;;;;;;;;9.10;92.10;;;;;;5132432;28;20002;-60
2022/11/29 11:02:03;;;;;;;;;;;9.20;92.00;;;;;;5132533;28;19966;-58
2022/11/29 11:04:30;;;;;;;;;;;9.30;91.70;;;;;;5132735;28;19915;-59
2022/11/29 11:06:59;;;;;;;;;;;9.30;91.40;;;;;;5132512;28;20036;-59
2022/11/29 11:09:34;;;;;;;;;;;9.30;91.80;;;;;;5114023;28;20040;-56
2022/11/29 11:12:07;;;;;;;;;;;9.30;91.80;;;;;;5119264;28;20325;-58
2022/11/29 11:14:36;;;;;;;;;;;9.30;91.40;;;;;;5112045;28;19965;-59
2022/11/29 11:17:19;;;;;;;;;;;9.40;91.60;;;;;;5128483;28;19934;-59
2022/11/29 11:19:56;;;;;;;;;;;9.30;91.20;;;;;;5132418;28;19912;-60
2022/11/29 11:22:22;;;;;;;;;;;9.20;91.60;;;;;;5119801;28;19955;-57
2022/11/29 11:24:55;;;;;;;;;;;9.20;91.60;;;;;;5112399;28;19937;-59
2022/11/29 11:27:31;;;;;;;;;;;9.10;91.50;;;;;;5134491;27;19915;-57
2022/11/29 11:29:56;;;;;;;;;;;9.10;91.90;;;;;;5135568;27;19915;-58
2022/11/29 11:32:22;;;;;;;;;;;9.10;92.10;;;;;;5117261;27;19911;-58
2022/11/29 11:34:51;;;;;;;;;;;9.20;92.00;;;;;;5116081;27;19911;-57
2022/11/29 11:37:21;;;;;;;;;;;9.30;92.10;;;;;;5115524;27;19939;-58
2022/11/29 11:39:49;;;;;;;;;;;9.30;91.80;;;;;;5114904;28;19964;-60
2022/11/29 11:42:35;;;;;;;;;;;9.30;91.10;;;;;;5115192;27;20283;-57
2022/11/29 11:45:02;;;;;;;;;;;9.20;91.20;;;;;;5131514;27;19918;-57
2022/11/29 11:47:29;;;;;;;;;;;9.20;91.70;;;;;;5122209;27;19916;-57
2022/11/29 11:50:15;;;;;;;;;;;9.20;92.00;;;;;;5114898;28;19912;-58
2022/11/29 11:52:47;;;;;;;;;;;9.30;91.80;;;;;;5119322;27;20356;-57
2022/11/29 11:55:31;;;;;;;;;;;9.30;91.90;;;;;;5133816;27;19954;-59
2022/11/29 11:57:57;;;;;;;;;;;9.40;91.80;;;;;;5125769;27;19916;-59
2022/11/29 12:00:43;;;;;;;;;;;9.40;91.80;;;;;;5117066;27;19916;-59
2022/11/29 12:03:24;;;;;;;;;;;9.40;91.70;;;;;;5124718;22;19928;-54
2022/11/29 12:05:51;;;;;;;;;;;9.40;91.40;;;;;;5073332;28;19913;-54
2022/11/29 12:08:17;;;;;;;;;;;9.40;91.50;;;;;;5073225;28;20354;-58
2022/11/29 12:10:43;;;;;;;;;;;9.30;91.20;;;;;;5051404;28;19920;-56
2022/11/29 12:13:16;;;;;;;;;;;9.10;91.00;;;;;;5073372;28;19952;-54
2022/11/29 12:15:43;;;;;;;;;;;8.90;92.30;;;;;;5068758;28;19912;-57
2022/11/29 12:18:21;;;;;;;;;;;8.80;92.00;;;;;;5052646;28;20008;-54
2022/11/29 12:21:05;;;;;;;;;;;8.70;92.90;;;;;;5058340;28;19955;-54
2022/11/29 12:23:33;;;;;;;;;;;8.70;92.90;;;;;;5059341;28;19931;-54
2022/11/29 12:26:03;;;;;;;;;;;8.80;93.10;;;;;;5073642;28;19908;-54
2022/11/29 12:28:30;;;;;;;;;;;9.00;92.80;;;;;;5073551;28;19912;-55
2022/11/29 12:31:05;;;;;;;;;;;9.00;92.60;;;;;;5073622;28;19966;-54
2022/11/29 12:33:30;;;;;;;;;;;9.10;92.40;;;;;;5055669;28;20357;-54
2022/11/29 12:35:59;;;;;;;;;;;9.20;92.30;;;;;;5055111;28;19963;-55
2022/11/29 12:38:31;;;;;;;;;;;9.20;92.20;;;;;;5054529;28;19912;-54
2022/11/29 12:41:19;;;;;;;;;;;9.20;92.10;;;;;;5055128;28;19913;-55
2022/11/29 12:43:52;;;;;;;;;;;9.20;92.10;;;;;;5072823;28;19920;-56
2022/11/29 12:46:21;;;;;;;;;;;9.10;91.80;;;;;;5072762;28;20069;-54
2022/11/29 12:48:56;;;;;;;;;;;9.10;92.10;;;;;;5073002;28;20460;-54
2022/11/29 12:51:40;;;;;;;;;;;9.10;92.10;;;;;;5073132;28;19913;-55
2022/11/29 12:54:23;;;;;;;;;;;9.20;91.90;;;;;;5073198;28;19915;-54
2022/11/29 12:56:54;;;;;;;;;;;9.20;91.80;;;;;;5072746;28;19954;-55
2022/11/29 12:59:36;;;;;;;;;;;9.30;91.80;;;;;;5072135;28;19908;-54
2022/11/29 13:02:10;;;;;;;;;;;9.30;91.70;;;;;;5072026;28;20011;-56
2022/11/29 13:04:39;;;;;;;;;;;9.30;91.70;;;;;;5073047;28;19912;-56
2022/11/29 13:07:04;;;;;;;;;;;9.30;91.60;;;;;;5072792;28;19928;-54
2022/11/29 13:09:41;;;;;;;;;;;9.30;91.60;;;;;;5072738;28;19908;-54
2022/11/29 13:12:15;;;;;;;;;;;9.30;91.60;;;;;;5072152;28;19955;-55
2022/11/29 13:15:09;;;;;;;;;;;9.20;91.70;;;;;;5072670;28;20296;-54
2022/11/29 13:17:50;;;;;;;;;;;9.20;91.60;;;;;;5000664;28;20294;-55
2022/11/29 13:20:21;;;;;;;;;;;9.20;91.50;;;;;;5072003;28;20077;-54
2022/11/29 13:22:51;;;;;;;;;;;9.10;91.50;;;;;;5072604;28;20277;-55
2022/11/29 13:25:19;;;;;;;;;;;9.10;91.50;;;;;;5072303;28;20392;-55
2022/11/29 13:28:04;;;;;;;;;;;9.10;91.60;;;;;;5054530;28;19948;-55
2022/11/29 13:30:30;;;;;;;;;;;9.00;91.60;;;;;;5071845;28;20319;-55
2022/11/29 13:33:04;;;;;;;;;;;9.00;91.80;;;;;;5072494;28;19912;-54
2022/11/29 13:35:36;;;;;;;;;;;9.00;92.00;;;;;;5072451;28;20007;-54
2022/11/29 13:38:06;;;;;;;;;;;9.00;92.10;;;;;;5072759;28;20331;-54
2022/11/29 13:40:36;;;;;;;;;;;9.00;92.00;;;;;;5072118;28;20373;-54
2022/11/29 13:43:05;;;;;;;;;;;9.10;91.90;;;;;;5054336;28;19909;-54
2022/11/29 13:45:34;;;;;;;;;;;9.10;92.00;;;;;;5071921;28;19934;-54
2022/11/29 13:48:00;;;;;;;;;;;9.00;92.00;;;;;;5071907;28;19916;-54
2022/11/29 13:50:38;;;;;;;;;;;9.00;92.00;;;;;;5054228;28;19909;-55
2022/11/29 13:53:16;;;;;;;;;;;9.10;92.00;;;;;;5072221;28;20257;-54
2022/11/29 13:55:59;;;;;;;;;;;9.00;92.60;;;;;;5071953;28;20011;-54
2022/11/29 13:58:27;;;;;;;;;;;9.00;92.00;;;;;;5072345;28;19908;-54
2022/11/29 14:00:57;;;;;;;;;;;9.00;92.20;;;;;;5053776;28;19918;-54
2022/11/29 14:03:23;;;;;;;;;;;9.00;92.20;;;;;;5072133;28;19973;-53
2022/11/29 14:05:53;;;;;;;;;;;9.00;92.40;;;;;;5071909;28;19916;-54
2022/11/29 14:08:26;;;;;;;;;;;9.00;92.40;;;;;;5071875;28;19916;-54
2022/11/29 14:10:56;;;;;;;;;;;9.10;92.10;;;;;;5069446;28;20356;-54
2022/11/29 14:13:25;;;;;;;;;;;9.10;92.00;;;;;;5070866;28;19912;-55
2022/11/29 14:15:55;;;;;;;;;;;9.20;92.10;;;;;;5060141;28;19927;-54
2022/11/29 14:18:36;;;;;;;;;;;9.10;91.60;;;;;;5057425;28;20295;-54
2022/11/29 14:21:02;;;;;;;;;;;9.10;92.00;;;;;;5061459;28;19916;-55
2022/11/29 14:23:47;;;;;;;;;;;9.10;92.10;;;;;;5066673;28;19962;-53
2022/11/29 14:26:13;;;;;;;;;;;;;;;;;;5050549;28;19909;-53
2022/11/29 14:28:39;;;;;;;;;;;;;;;;;;5057989;28;19913;-55
2022/11/29 14:31:05;;;;;;;;;;;;;;;;;;5063056;28;19920;-55
2022/11/29 14:33:31;;;;;;;;;;;;;;;;;;5069364;28;19912;-53
2022/11/29 14:35:57;;;;;;;;;;;;;;;;;;5066464;28;19916;-53
2022/11/29 14:38:23;;;;;;;;;;;;;;;;;;5059533;28;20011;-53
2022/11/29 14:40:49;;;;;;;;;;;;;;;;;;5059976;28;19917;-54
2022/11/29 14:43:15;;;;;;;;;;;;;;;;;;5064030;28;20141;-56
2022/11/29 14:45:41;;;;;;;;;;;;;;;;;;5063763;28;19921;-56
2022/11/29 14:48:07;;;;;;;;;;;;;;;;;;5068735;28;19916;-55
2022/11/29 14:50:33;;;;;;;;;;;;;;;;;;5071675;28;19915;-53
2022/11/29 14:52:59;;;;;;;;;;;9.10;92.20;;;;;;5071387;28;19913;-52
2022/11/29 14:55:25;;;;;;;;;;;9.00;92.50;;;;;;5074490;28;19959;-53
2022/11/29 14:57:59;;;;;;;;;;;9.00;92.30;;;;;;5091872;28;20301;-52